Time;durP1;ratioP1;P1;durP2;ratioP2;P2;SDS_P1;SDS_P2;PMS_P1;PMS_P2;Temp;Humidity;BMP_temperature;BMP_pressure;BME280_temperature;BME280_humidity;BME280_pressure;Samples;Min_cycle;Max_cycle;Signal;HPM_P1;HPM_P2
2021/11/09 00:00:09;;;;;;;10.73;6.13;;;5.70;93.60;;;;;;5020833;28;20339;-68
2021/11/09 00:02:35;;;;;;;13.65;6.00;;;5.60;93.60;;;;;;5022010;28;20037;-69
2021/11/09 00:05:03;;;;;;;12.85;6.97;;;5.60;93.90;;;;;;5020019;28;20048;-68
2021/11/09 00:07:48;;;;;;;14.32;6.28;;;5.60;93.90;;;;;;5021649;28;20398;-68
2021/11/09 00:10:14;;;;;;;14.77;7.45;;;5.60;93.70;;;;;;5020977;28;20037;-68
2021/11/09 00:13:01;;;;;;;12.88;5.90;;;5.70;93.90;;;;;;5021392;28;20022;-69
2021/11/09 00:15:29;;;;;;;16.25;8.10;;;5.70;93.80;;;;;;5020023;28;20212;-68
2021/11/09 00:17:57;;;;;;;13.32;6.88;;;5.70;93.70;;;;;;5020868;28;20022;-69
2021/11/09 00:20:25;;;;;;;9.90;6.95;;;5.70;93.80;;;;;;5021379;28;20273;-69
2021/11/09 00:22:51;;;;;;;11.45;6.15;;;5.60;93.80;;;;;;5020729;28;20081;-68
2021/11/09 00:25:18;;;;;;;17.73;7.55;;;5.70;93.80;;;;;;5021535;28;20018;-68
2021/11/09 00:27:43;;;;;;;13.43;6.10;;;5.60;93.80;;;;;;5019642;28;20263;-68
2021/11/09 00:30:11;;;;;;;10.85;6.13;;;5.60;93.90;;;;;;5021475;28;20062;-68
2021/11/09 00:32:43;;;;;;;16.38;6.57;;;5.60;94.00;;;;;;5020459;28;20013;-68
2021/11/09 00:35:10;;;;;;;14.55;6.15;;;5.70;94.10;;;;;;5021475;28;20096;-68
2021/11/09 00:37:36;;;;;;;17.00;7.95;;;5.70;93.90;;;;;;5019364;28;20228;-69
2021/11/09 00:40:03;;;;;;;13.25;7.65;;;5.70;94.20;;;;;;5021453;28;20022;-68
2021/11/09 00:42:29;;;;;;;15.50;6.43;;;5.70;93.90;;;;;;5004120;28;20034;-68
2021/11/09 00:44:54;;;;;;;13.25;6.45;;;5.60;93.80;;;;;;5020359;28;20084;-68
2021/11/09 00:47:21;;;;;;;12.88;5.88;;;5.60;94.10;;;;;;5021494;28;20026;-69
2021/11/09 00:49:46;;;;;;;14.55;6.78;;;5.60;94.00;;;;;;5021004;28;20036;-68
2021/11/09 00:52:12;;;;;;;15.18;7.22;;;5.70;94.00;;;;;;5024848;28;20022;-68
2021/11/09 00:54:39;;;;;;;14.77;8.00;;;5.70;94.00;;;;;;5023685;28;20028;-68
2021/11/09 00:57:05;;;;;;;11.77;7.00;;;5.60;94.00;;;;;;5024953;28;20045;-68
2021/11/09 00:59:30;;;;;;;13.40;6.80;;;5.70;94.00;;;;;;5023927;28;20331;-69
2021/11/09 01:01:56;;;;;;;15.23;6.38;;;5.70;94.10;;;;;;5024295;28;20022;-68
2021/11/09 01:04:22;;;;;;;11.97;6.90;;;5.70;94.00;;;;;;5023896;28;20026;-69
2021/11/09 01:06:48;;;;;;;14.23;6.45;;;5.60;93.90;;;;;;5023487;28;20030;-68
2021/11/09 01:09:14;;;;;;;14.50;6.55;;;5.50;94.10;;;;;;5024465;28;20108;-68
2021/11/09 01:11:40;;;;;;;10.20;5.82;;;5.50;94.30;;;;;;5023442;28;20030;-69
2021/11/09 01:14:06;;;;;;;18.00;7.20;;;5.60;94.40;;;;;;5024649;28;20021;-69
2021/11/09 01:16:32;;;;;;;21.52;7.50;;;5.60;94.30;;;;;;5022242;28;20026;-68
2021/11/09 01:19:03;;;;;;;12.30;6.57;;;5.50;94.30;;;;;;5007164;28;20025;-68
2021/11/09 01:21:30;;;;;;;13.55;6.95;;;5.60;94.50;;;;;;5022985;28;20391;-69
2021/11/09 01:23:56;;;;;;;17.20;7.47;;;5.70;94.30;;;;;;5024567;28;20049;-68
2021/11/09 01:26:22;;;;;;;16.25;7.28;;;5.70;94.20;;;;;;5023602;28;20033;-69
2021/11/09 01:28:51;;;;;;;13.52;7.13;;;5.70;94.30;;;;;;5023443;28;20068;-69
2021/11/09 01:31:16;;;;;;;16.13;7.28;;;5.70;94.30;;;;;;5022855;28;20022;-68
2021/11/09 01:33:43;;;;;;;19.17;6.82;;;5.70;94.20;;;;;;5024307;28;20029;-69
2021/11/09 01:36:09;;;;;;;14.20;7.30;;;5.70;94.10;;;;;;5023981;28;20034;-69
2021/11/09 01:38:36;;;;;;;16.35;8.07;;;5.70;94.20;;;;;;5022107;28;20068;-68
2021/11/09 01:41:02;;;;;;;20.73;7.32;;;5.70;94.30;;;;;;5022577;28;20029;-68
2021/11/09 01:43:28;;;;;;;15.82;7.43;;;5.70;94.40;;;;;;5024177;28;20216;-68
2021/11/09 01:45:54;;;;;;;17.43;7.33;;;5.70;94.20;;;;;;5021955;28;20041;-68
2021/11/09 01:48:20;;;;;;;17.10;7.35;;;5.70;94.00;;;;;;5022889;28;20026;-69
2021/11/09 01:50:53;;;;;;;16.77;6.70;;;5.70;93.90;;;;;;5022530;28;20396;-68
2021/11/09 01:53:19;;;;;;;13.48;7.18;;;5.70;94.00;;;;;;5024092;28;20275;-69
2021/11/09 01:55:46;;;;;;;15.55;6.47;;;5.80;93.90;;;;;;5021499;28;20053;-68
2021/11/09 01:58:12;;;;;;;15.82;7.10;;;5.80;93.90;;;;;;5023813;28;20025;-68
2021/11/09 02:00:44;;;;;;;17.38;6.88;;;5.70;94.20;;;;;;5021378;28;20358;-68
2021/11/09 02:03:10;;;;;;;18.17;8.20;;;5.70;94.30;;;;;;5022641;28;20041;-68
2021/11/09 02:05:36;;;;;;;12.88;6.55;;;5.70;94.40;;;;;;5023418;28;20022;-68
2021/11/09 02:08:03;;;;;;;16.10;6.80;;;5.60;94.40;;;;;;5023626;28;20022;-68
2021/11/09 02:10:32;;;;;;;12.15;6.35;;;5.60;94.30;;;;;;5023143;28;20063;-68
2021/11/09 02:12:59;;;;;;;14.95;7.15;;;5.60;94.50;;;;;;5023731;28;20112;-68
2021/11/09 02:15:26;;;;;;;12.77;6.40;;;5.70;94.50;;;;;;5023547;28;20026;-69
2021/11/09 02:17:52;;;;;;;15.90;6.50;;;5.70;94.50;;;;;;5023384;28;20029;-68
2021/11/09 02:20:21;;;;;;;10.25;5.72;;;5.70;94.30;;;;;;5023133;28;20025;-69
2021/11/09 02:22:47;;;;;;;13.43;6.15;;;5.70;94.40;;;;;;5022781;28;20030;-68
2021/11/09 02:25:15;;;;;;;10.98;5.55;;;5.60;94.20;;;;;;5022288;28;20102;-68
2021/11/09 02:27:41;;;;;;;14.38;6.53;;;5.60;94.20;;;;;;5022021;28;20028;-69
2021/11/09 02:30:09;;;;;;;13.38;5.78;;;5.60;94.40;;;;;;5023164;28;20025;-69
2021/11/09 02:32:35;;;;;;;11.70;5.47;;;5.60;94.40;;;;;;5021292;28;20025;-68
2021/11/09 02:35:02;;;;;;;12.80;6.20;;;5.60;94.50;;;;;;5023190;28;20026;-68
2021/11/09 02:37:28;;;;;;;;;;;5.60;94.50;;;;;;5044531;23;20021;-68
2021/11/09 02:39:54;;;;;;;9.38;5.68;;;5.60;94.60;;;;;;5049666;28;19913;-66
2021/11/09 02:42:20;;;;;;;11.32;5.50;;;5.60;94.50;;;;;;5047761;28;20044;-66
2021/11/09 02:44:56;;;;;;;12.00;6.65;;;5.60;94.50;;;;;;5042582;28;20021;-66
2021/11/09 02:47:25;;;;;;;13.18;6.68;;;5.60;94.40;;;;;;5041139;28;20053;-66
2021/11/09 02:52:17;;;;;;;12.93;5.55;;;5.60;94.20;;;;;;5040360;28;20027;-66
2021/11/09 02:54:46;;;;;;;14.05;5.50;;;5.60;94.30;;;;;;5042896;28;20013;-67
2021/11/09 02:57:29;;;;;;;10.18;5.68;;;5.50;94.40;;;;;;5041427;28;20351;-67
2021/11/09 03:00:17;;;;;;;17.92;6.03;;;5.50;94.40;;;;;;5045457;28;20030;-67
2021/11/09 03:02:52;;;;;;;12.15;5.43;;;5.60;94.50;;;;;;5044229;28;20048;-67
2021/11/09 03:06:12;;;;;;;13.55;5.10;;;5.50;94.40;;;;;;5045099;28;20029;-67
2021/11/09 03:10:54;;;;;;;14.23;5.05;;;5.50;94.40;;;;;;5042040;28;20025;-67
2021/11/09 03:13:21;;;;;;;9.65;5.70;;;5.50;94.50;;;;;;5040987;28;20066;-67
2021/11/09 03:15:49;;;;;;;16.10;6.03;;;5.40;94.40;;;;;;5042690;28;20029;-68
2021/11/09 03:18:17;;;;;;;14.07;5.70;;;5.30;94.60;;;;;;5025052;28;20021;-67
2021/11/09 03:20:52;;;;;;;11.30;5.38;;;5.30;94.70;;;;;;5042183;28;20017;-68
2021/11/09 03:45:21;;;;;;;12.02;6.68;;;5.30;94.80;;;;;;5042029;28;20105;-67
2021/11/09 03:47:53;;;;;;;15.48;7.22;;;5.20;94.90;;;;;;5042033;28;20033;-67
2021/11/09 03:50:20;;;;;;;11.05;6.30;;;5.10;94.90;;;;;;5040753;28;20048;-68
2021/11/09 03:52:59;;;;;;;14.18;5.85;;;5.10;94.90;;;;;;5039722;28;20021;-67
2021/11/09 03:58:08;;;;;;;9.80;5.97;;;5.00;95.00;;;;;;5039660;28;20035;-67
2021/11/09 04:09:27;;;;;;;13.57;6.90;;;4.90;95.20;;;;;;5040728;28;20174;-67
2021/11/09 04:14:46;;;;;;;11.80;5.70;;;4.90;95.10;;;;;;5031421;28;20025;-67
2021/11/09 04:17:18;;;;;;;14.73;6.65;;;4.80;95.30;;;;;;5021758;28;20049;-67
2021/11/09 04:19:51;;;;;;;12.10;6.50;;;4.80;95.30;;;;;;5022075;28;20060;-67
2021/11/09 04:27:37;;;;;;;11.57;6.30;;;4.70;95.50;;;;;;5042878;28;20047;-68
2021/11/09 04:30:37;;;;;;;11.00;5.80;;;4.70;95.40;;;;;;5045450;28;20396;-67
2021/11/09 04:39:02;;;;;;;11.90;6.15;;;4.60;95.40;;;;;;5045156;28;20100;-67
2021/11/09 05:10:27;;;;;;;12.43;6.03;;;4.20;95.60;;;;;;5043545;28;20023;-67
2021/11/09 05:12:53;;;;;;;12.85;5.97;;;4.20;95.70;;;;;;5032071;28;20014;-66
2021/11/09 05:15:19;;;;;;;14.30;6.80;;;4.10;95.70;;;;;;5043900;28;20237;-66
2021/11/09 05:17:45;;;;;;;13.38;6.68;;;4.10;95.70;;;;;;5044024;28;20067;-66
2021/11/09 05:20:11;;;;;;;14.80;6.63;;;4.10;95.70;;;;;;5044198;28;20030;-66
2021/11/09 05:22:37;;;;;;;13.60;6.32;;;4.00;95.70;;;;;;5042884;28;20029;-66
2021/11/09 05:25:04;;;;;;;12.70;6.93;;;4.00;95.70;;;;;;5042017;28;20021;-65
2021/11/09 05:27:30;;;;;;;12.25;5.88;;;3.90;95.60;;;;;;5044070;28;20029;-66
2021/11/09 05:29:56;;;;;;;13.20;5.73;;;4.00;95.60;;;;;;5043014;28;20017;-65
2021/11/09 05:32:22;;;;;;;11.85;6.05;;;3.90;95.60;;;;;;5026294;28;20331;-65
2021/11/09 05:34:48;;;;;;;9.27;5.67;;;3.90;95.50;;;;;;5007061;28;20026;-66
2021/11/09 05:37:18;;;;;;;19.40;7.03;;;3.90;95.60;;;;;;5029401;28;20029;-66
2021/11/09 05:39:55;;;;;;;12.13;6.95;;;3.90;95.70;;;;;;5042317;28;20092;-65
2021/11/09 05:42:22;;;;;;;13.43;6.53;;;3.90;95.80;;;;;;5019011;28;20093;-65
2021/11/09 05:44:47;;;;;;;17.08;6.43;;;3.80;95.80;;;;;;5003104;28;20064;-66
2021/11/09 05:47:13;;;;;;;12.38;6.18;;;3.80;95.80;;;;;;5004039;28;20045;-66
2021/11/09 05:49:40;;;;;;;10.30;5.22;;;3.80;95.80;;;;;;5041504;28;20025;-65
2021/11/09 05:52:07;;;;;;;12.60;6.07;;;3.70;95.90;;;;;;5043589;28;20029;-66
2021/11/09 05:54:32;;;;;;;14.63;6.18;;;3.80;96.10;;;;;;5041447;28;20025;-66
2021/11/09 05:57:02;;;;;;;14.20;6.40;;;3.70;96.20;;;;;;5030324;28;20100;-66
2021/11/09 05:59:28;;;;;;;13.43;6.43;;;3.70;96.20;;;;;;5016031;28;20328;-66
2021/11/09 06:01:53;;;;;;;13.00;6.70;;;3.70;96.40;;;;;;5015708;28;20044;-66
2021/11/09 06:04:19;;;;;;;10.80;5.78;;;3.70;96.50;;;;;;5028148;28;20143;-66
2021/11/09 06:06:45;;;;;;;18.70;7.30;;;3.70;96.50;;;;;;5043409;28;20039;-66
2021/11/09 06:09:11;;;;;;;16.55;7.38;;;3.70;96.50;;;;;;5042375;28;20029;-66
2021/11/09 06:11:37;;;;;;;17.38;8.23;;;3.70;96.40;;;;;;5043204;28;20029;-66
2021/11/09 06:14:03;;;;;;;16.17;8.95;;;3.70;96.30;;;;;;5042818;28;20021;-66
2021/11/09 06:16:29;;;;;;;17.27;8.63;;;3.70;96.20;;;;;;5042210;28;20028;-66
2021/11/09 06:18:56;;;;;;;17.58;8.63;;;3.60;96.20;;;;;;5043914;28;20025;-66
2021/11/09 06:21:21;;;;;;;14.70;9.05;;;3.60;96.10;;;;;;5043142;28;20029;-66
2021/11/09 06:23:48;;;;;;;15.45;9.95;;;3.60;95.90;;;;;;5041829;28;20110;-66
2021/11/09 06:26:14;;;;;;;19.38;9.27;;;3.50;95.90;;;;;;5043073;28;20096;-66
2021/11/09 06:28:40;;;;;;;15.38;9.35;;;3.40;95.70;;;;;;5042969;28;20025;-66
2021/11/09 06:31:06;;;;;;;20.30;9.93;;;3.40;95.90;;;;;;5041802;28;20021;-66
2021/11/09 06:33:32;;;;;;;28.58;12.60;;;3.40;95.90;;;;;;5040513;28;20017;-66
2021/11/09 06:35:58;;;;;;;19.40;9.90;;;3.30;96.00;;;;;;5043232;28;20442;-66
2021/11/09 06:38:24;;;;;;;20.17;10.15;;;3.30;95.90;;;;;;5045464;28;20284;-66
2021/11/09 06:40:50;;;;;;;24.67;9.68;;;3.30;96.10;;;;;;5045376;28;20018;-67
2021/11/09 06:43:16;;;;;;;16.98;9.07;;;3.30;96.00;;;;;;5044839;28;20084;-67
2021/11/09 06:45:42;;;;;;;20.45;9.25;;;3.20;96.00;;;;;;5044836;28;20206;-66
2021/11/09 06:48:09;;;;;;;19.10;9.63;;;3.20;96.00;;;;;;5042479;28;20021;-66
2021/11/09 06:50:35;;;;;;;18.27;11.07;;;3.20;96.30;;;;;;5041981;28;20021;-65
2021/11/09 06:53:01;;;;;;;16.42;9.13;;;3.20;96.20;;;;;;5042056;28;20032;-66
2021/11/09 06:55:27;;;;;;;21.30;9.38;;;3.30;96.30;;;;;;5041790;28;20025;-64
2021/11/09 06:57:53;;;;;;;20.50;9.43;;;3.20;96.20;;;;;;5042120;28;20346;-66
2021/11/09 07:00:21;;;;;;;21.05;9.13;;;3.30;96.20;;;;;;5041539;28;20017;-65
2021/11/09 07:02:47;;;;;;;15.10;8.52;;;3.30;96.30;;;;;;5042570;28;20059;-65
2021/11/09 07:05:13;;;;;;;17.63;9.02;;;3.30;96.30;;;;;;5042693;28;20315;-65
2021/11/09 07:07:40;;;;;;;21.38;9.00;;;3.50;96.50;;;;;;5042397;28;20021;-65
2021/11/09 07:10:07;;;;;;;13.32;8.00;;;3.40;96.30;;;;;;5040088;28;20021;-65
2021/11/09 07:12:33;;;;;;;;;;;3.50;96.30;;;;;;5042621;28;20021;-65
2021/11/09 07:14:59;;;;;;;13.13;7.55;;;3.60;96.10;;;;;;5040886;28;19905;-65
2021/11/09 07:17:25;;;;;;;13.07;7.82;;;3.60;96.00;;;;;;5041266;28;20339;-65
2021/11/09 07:19:52;;;;;;;14.52;7.80;;;3.70;96.00;;;;;;5025018;28;20049;-64
2021/11/09 07:22:19;;;;;;;15.63;8.50;;;3.70;95.90;;;;;;5021950;28;20040;-64
2021/11/09 07:24:46;;;;;;;13.00;8.13;;;3.70;95.90;;;;;;5028918;28;20094;-65
2021/11/09 07:27:12;;;;;;;14.35;8.30;;;3.70;95.90;;;;;;5040657;28;20060;-65
2021/11/09 07:29:44;;;;;;;14.57;8.20;;;3.70;95.90;;;;;;5041361;28;20013;-65
2021/11/09 07:32:10;;;;;;;13.65;8.07;;;3.70;95.90;;;;;;5042143;28;20189;-65
2021/11/09 07:34:36;;;;;;;16.63;8.10;;;3.70;95.90;;;;;;5040904;28;20041;-65
2021/11/09 07:37:04;;;;;;;18.10;8.37;;;3.80;96.00;;;;;;5040881;28;20029;-65
2021/11/09 07:39:30;;;;;;;13.45;7.80;;;3.90;96.00;;;;;;5041822;28;20025;-64
2021/11/09 07:41:56;;;;;;;21.27;9.23;;;3.80;95.90;;;;;;5040435;28;20044;-65
2021/11/09 07:44:22;;;;;;;14.55;8.20;;;3.80;95.90;;;;;;5040863;28;20033;-65
2021/11/09 07:46:48;;;;;;;16.15;7.63;;;4.00;96.10;;;;;;5042194;28;20029;-65
2021/11/09 07:49:14;;;;;;;16.65;8.18;;;4.10;96.00;;;;;;5040782;28;20104;-65
2021/11/09 07:51:39;;;;;;;12.27;6.55;;;4.10;96.00;;;;;;5040113;28;20017;-64
2021/11/09 07:54:06;;;;;;;12.77;7.00;;;4.20;96.10;;;;;;5041053;28;20017;-65
2021/11/09 07:56:35;;;;;;;15.45;7.40;;;4.30;96.10;;;;;;5042049;28;20072;-64
2021/11/09 08:02:00;;;;;;;14.95;7.82;;;4.50;96.10;;;;;;5045929;28;20033;-65
2021/11/09 08:04:17;;;;;;;12.23;6.45;;;4.50;95.90;;;;;;5045811;28;20343;-65
2021/11/09 08:07:00;;;;;;;18.83;7.65;;;4.60;95.90;;;;;;5045761;28;20247;-64
2021/11/09 08:09:29;;;;;;;12.43;7.35;;;4.60;95.80;;;;;;5043538;28;20097;-65
2021/11/09 08:12:00;;;;;;;16.05;7.47;;;4.70;95.60;;;;;;5045240;28;20220;-65
2021/11/09 08:14:26;;;;;;;16.13;7.38;;;4.70;95.50;;;;;;5045750;28;20025;-65
2021/11/09 08:16:52;;;;;;;15.00;8.10;;;4.70;95.60;;;;;;5044537;28;20025;-65
2021/11/09 08:19:18;;;;;;;13.80;6.95;;;4.80;95.60;;;;;;5045331;28;20044;-65
2021/11/09 08:21:45;;;;;;;12.93;7.50;;;4.90;95.60;;;;;;5045306;28;20339;-65
2021/11/09 08:24:14;;;;;;;;;;;4.90;95.60;;;;;;5045784;28;20354;-64
2021/11/09 08:26:40;;;;;;;14.50;6.60;;;5.00;95.70;;;;;;5025542;28;19965;-65
2021/11/09 08:29:06;;;;;;;12.05;6.22;;;5.10;95.70;;;;;;5025475;28;20026;-65
2021/11/09 08:31:36;;;;;;;14.15;6.35;;;5.20;95.60;;;;;;5042825;28;20100;-65
2021/11/09 08:34:03;;;;;;;12.07;6.82;;;5.20;95.60;;;;;;5044296;28;20025;-65
2021/11/09 08:36:29;;;;;;;;;;;5.30;95.60;;;;;;5025892;28;20029;-64
2021/11/09 08:39:00;;;;;;;22.08;7.55;;;5.40;95.50;;;;;;5043900;28;19909;-64
2021/11/09 08:41:27;;;;;;;13.65;6.40;;;5.50;95.30;;;;;;5045036;28;20021;-63
2021/11/09 08:44:17;;;;;;;12.15;6.97;;;5.50;95.20;;;;;;5043841;28;20033;-64
2021/11/09 08:46:47;;;;;;;14.85;7.45;;;5.50;94.90;;;;;;5045071;28;20029;-64
2021/11/09 08:49:15;;;;;;;10.82;6.38;;;5.60;95.00;;;;;;5043698;28;20021;-64
2021/11/09 08:51:41;;;;;;;10.82;6.78;;;5.60;94.80;;;;;;5044602;28;20017;-65
2021/11/09 08:54:31;;;;;;;11.63;7.03;;;5.60;94.90;;;;;;5044079;28;20072;-65
2021/11/09 09:05:14;;;;;;;15.25;7.15;;;5.90;94.80;;;;;;5025172;28;20034;-66
2021/11/09 09:07:40;;;;;;;12.68;7.75;;;6.00;94.70;;;;;;5038876;28;20059;-65
2021/11/09 09:10:09;;;;;;;14.63;7.10;;;6.20;94.60;;;;;;5042769;28;20358;-65
2021/11/09 09:12:36;;;;;;;11.32;6.22;;;6.20;94.40;;;;;;5041956;28;20049;-65
2021/11/09 09:15:05;;;;;;;13.73;6.38;;;6.30;94.50;;;;;;5043683;28;20181;-66
2021/11/09 09:17:31;;;;;;;12.10;5.95;;;6.30;94.50;;;;;;5044398;28;20044;-70
2021/11/09 09:20:07;;;;;;;14.85;6.05;;;6.40;94.60;;;;;;5044522;28;20332;-65
2021/11/09 09:22:46;;;;;;;15.30;6.30;;;6.60;94.60;;;;;;5042992;28;20023;-65
2021/11/09 09:57:26;;;;;;;8.17;4.50;;;8.90;90.20;;;;;;5042783;28;20023;-64
2021/11/09 09:59:53;;;;;;;14.55;6.47;;;9.10;88.80;;;;;;5043702;28;20033;-66
2021/11/09 10:02:26;;;;;;;9.07;4.88;;;9.30;89.80;;;;;;5042663;28;20089;-66
2021/11/09 10:05:10;;;;;;;10.30;4.68;;;9.60;89.20;;;;;;5043792;28;20042;-66
2021/11/09 10:07:52;;;;;;;9.45;4.07;;;9.80;85.00;;;;;;5043120;28;20021;-66
2021/11/09 10:10:33;;;;;;;9.57;4.07;;;10.00;85.60;;;;;;5042587;28;20208;-65
2021/11/09 10:13:16;;;;;;;8.27;3.45;;;10.20;83.50;;;;;;5043270;28;20017;-66
2021/11/09 10:15:48;;;;;;;4.60;1.90;;;10.60;81.40;;;;;;5042414;28;20048;-66
2021/11/09 10:18:16;;;;;;;5.90;1.17;;;11.00;70.30;;;;;;5045162;28;20347;-67
2021/11/09 10:20:50;;;;;;;2.47;1.25;;;11.40;68.20;;;;;;5046875;28;20371;-66
2021/11/09 10:23:25;;;;;;;2.20;1.05;;;11.90;65.00;;;;;;5045266;28;20017;-65
2021/11/09 10:25:54;;;;;;;6.07;1.30;;;12.70;58.40;;;;;;5046297;28;20511;-65
2021/11/09 10:28:21;;;;;;;5.93;1.42;;;13.70;56.90;;;;;;5043071;28;20067;-66
2021/11/09 10:31:07;;;;;;;2.97;1.60;;;15.20;49.80;;;;;;5043411;28;20320;-65
2021/11/09 10:33:40;;;;;;;3.13;1.95;;;16.40;44.70;;;;;;5042622;28;20021;-66
2021/11/09 10:36:29;;;;;;;2.30;1.20;;;16.70;42.70;;;;;;5043414;28;20088;-64
2021/11/09 10:39:16;;;;;;;2.50;1.20;;;16.80;44.50;;;;;;5041815;28;20037;-65
2021/11/09 10:42:09;;;;;;;3.92;1.20;;;17.50;41.70;;;;;;5042885;28;20100;-65
2021/11/09 10:44:37;;;;;;;4.53;1.50;;;17.70;41.20;;;;;;5041722;28;20029;-66
2021/11/09 10:47:29;;;;;;;4.95;1.23;;;18.20;40.70;;;;;;5042745;28;20023;-66
2021/11/09 10:49:59;;;;;;;1.63;1.05;;;18.50;38.70;;;;;;5042462;28;20027;-65
2021/11/09 10:52:37;;;;;;;2.75;1.40;;;19.00;37.40;;;;;;5042814;28;20025;-66
2021/11/09 10:55:27;;;;;;;2.90;1.30;;;18.90;39.40;;;;;;5043027;28;20021;-65
2021/11/09 11:06:38;;;;;;;2.28;1.20;;;19.50;35.50;;;;;;5030561;28;20037;-66
2021/11/09 11:09:07;;;;;;;2.20;1.40;;;18.50;37.30;;;;;;5041398;28;20076;-65
2021/11/09 11:11:58;;;;;;;3.75;1.42;;;17.90;39.10;;;;;;5040992;28;20027;-66
2021/11/09 11:14:29;;;;;;;3.72;1.70;;;16.70;42.70;;;;;;5042512;28;20034;-66
2021/11/09 11:17:21;;;;;;;1.80;1.38;;;16.40;42.00;;;;;;5041313;28;20033;-65
2021/11/09 11:19:54;;;;;;;1.55;1.20;;;16.00;43.50;;;;;;5040911;28;20348;-65
2021/11/09 11:22:25;;;;;;;2.38;1.10;;;15.60;45.30;;;;;;5042100;28;20033;-66
2021/11/09 11:24:52;;;;;;;5.30;1.50;;;15.90;44.90;;;;;;5040985;28;20021;-65
2021/11/09 11:27:18;;;;;;;;;;;15.80;43.70;;;;;;5042650;28;20031;-66
2021/11/09 11:29:44;;;;;;;5.85;1.70;;;15.60;44.60;;;;;;5025501;28;19933;-66
2021/11/09 11:32:13;;;;;;;5.97;2.35;;;15.20;44.90;;;;;;5022095;28;20125;-66
2021/11/09 11:34:39;;;;;;;4.43;1.63;;;14.90;46.20;;;;;;5035716;28;20051;-67
2021/11/09 11:37:07;;;;;;;8.40;3.77;;;15.20;45.50;;;;;;5041805;28;20371;-66
2021/11/09 11:39:34;;;;;;;2.90;1.42;;;15.40;45.30;;;;;;5041106;28;20087;-66
2021/11/09 11:42:14;;;;;;;5.45;1.40;;;15.60;44.50;;;;;;5040851;28;20020;-67
2021/11/09 11:44:41;;;;;;;3.95;1.40;;;16.10;43.30;;;;;;5041749;28;20025;-66
2021/11/09 11:47:10;;;;;;;6.57;1.80;;;15.70;44.50;;;;;;5041912;28;20064;-66
2021/11/09 11:49:41;;;;;;;2.65;1.05;;;16.40;42.10;;;;;;5040752;28;20021;-66
2021/11/09 11:52:19;;;;;;;4.20;1.10;;;16.60;41.60;;;;;;5041704;28;20057;-66
2021/11/09 11:54:55;;;;;;;1.65;1.38;;;17.00;40.30;;;;;;5042036;28;20045;-66
2021/11/09 11:57:41;;;;;;;1.52;0.95;;;16.80;41.80;;;;;;5039667;28;20022;-66
2021/11/09 12:00:45;;;;;;;2.60;1.20;;;17.30;38.30;;;;;;5042068;28;20029;-65
2021/11/09 12:03:23;;;;;;;3.00;1.30;;;17.20;39.20;;;;;;5040789;28;20060;-65
2021/11/09 12:05:54;;;;;;;2.50;1.30;;;18.10;37.60;;;;;;5041725;28;20030;-66
2021/11/09 12:08:37;;;;;;;1.85;1.05;;;18.00;37.50;;;;;;5040558;28;20035;-65
2021/11/09 12:11:05;;;;;;;2.70;1.70;;;18.10;37.00;;;;;;5041173;28;20060;-66
2021/11/09 12:13:31;;;;;;;1.15;0.93;;;18.80;35.80;;;;;;5041671;28;20017;-65
2021/11/09 12:16:03;;;;;;;1.33;1.20;;;19.20;34.70;;;;;;5040683;28;20036;-65
2021/11/09 12:18:32;;;;;;;2.58;1.55;;;19.10;34.90;;;;;;5041311;28;20017;-65
2021/11/09 12:21:19;;;;;;;3.20;1.30;;;17.90;37.80;;;;;;5040575;28;20099;-67
2021/11/09 12:24:13;;;;;;;;;;;18.30;37.80;;;;;;5041284;28;20028;-66
2021/11/09 12:26:40;;;;;;;3.95;1.27;;;18.60;37.90;;;;;;5040627;28;19984;-66
2021/11/09 12:29:42;;;;;;;3.55;1.50;;;19.80;35.10;;;;;;5041527;28;20084;-66
2021/11/09 12:32:31;;;;;;;2.58;1.15;;;20.80;36.20;;;;;;5038447;28;20332;-66
2021/11/09 12:35:05;;;;;;;2.40;1.50;;;20.40;33.80;;;;;;5041534;28;20036;-66
2021/11/09 12:37:41;;;;;;;2.60;1.65;;;21.00;32.20;;;;;;5040008;28;20027;-65
2021/11/09 12:40:31;;;;;;;5.57;1.52;;;21.00;31.80;;;;;;5041511;28;20030;-65
2021/11/09 12:43:23;;;;;;;2.95;1.30;;;20.80;32.30;;;;;;5040143;28;20099;-65
2021/11/09 12:46:10;;;;;;;3.53;1.25;;;20.20;33.70;;;;;;5042205;28;20021;-65
2021/11/09 12:48:52;;;;;;;3.80;1.48;;;20.40;33.40;;;;;;5043765;28;20024;-65
2021/11/09 12:51:26;;;;;;;1.88;1.50;;;19.00;36.40;;;;;;5044790;28;20032;-64
2021/11/09 12:53:52;;;;;;;2.70;1.30;;;21.50;31.80;;;;;;5043941;28;20021;-64
2021/11/09 12:56:59;;;;;;;3.35;1.55;;;22.90;30.00;;;;;;5043532;28;20320;-63
2021/11/09 13:02:15;;;;;;;3.53;1.38;;;22.20;30.10;;;;;;5043565;28;20093;-65
2021/11/09 13:07:33;;;;;;;3.92;1.40;;;21.50;31.40;;;;;;5043624;28;20029;-65
2021/11/09 13:10:18;;;;;;;2.70;1.35;;;21.80;30.60;;;;;;5043379;28;20017;-65
2021/11/09 13:12:45;;;;;;;3.08;1.20;;;20.10;33.20;;;;;;5044573;28;20219;-65
2021/11/09 13:15:16;;;;;;;1.48;1.20;;;20.60;32.50;;;;;;5043519;28;20312;-66
2021/11/09 13:18:03;;;;;;;2.80;1.30;;;19.70;33.80;;;;;;5043419;28;20323;-65
2021/11/09 13:23:12;;;;;;;2.38;1.30;;;16.60;40.10;;;;;;5044416;28;20033;-64
2021/11/09 13:25:50;;;;;;;2.63;1.13;;;16.20;40.60;;;;;;5043196;28;20017;-64
2021/11/09 13:28:32;;;;;;;3.53;1.15;;;15.90;40.40;;;;;;5044286;28;20075;-64
2021/11/09 13:31:08;;;;;;;1.90;1.40;;;14.80;42.20;;;;;;5042743;28;20031;-64
2021/11/09 13:33:40;;;;;;;1.38;0.93;;;14.70;42.70;;;;;;5044302;28;20099;-64
2021/11/09 13:36:09;;;;;;;1.73;0.82;;;14.20;43.50;;;;;;5043093;28;20067;-64
2021/11/09 13:38:40;;;;;;;2.40;1.13;;;13.70;45.50;;;;;;5044058;28;20022;-64
2021/11/09 13:41:20;;;;;;;5.72;1.42;;;13.20;46.80;;;;;;5042713;28;20029;-64
2021/11/09 13:43:52;;;;;;;2.53;1.25;;;12.70;47.90;;;;;;5044113;28;20227;-64
2021/11/09 13:46:21;;;;;;;3.08;1.45;;;12.40;48.90;;;;;;5042980;28;20052;-64
2021/11/09 13:48:52;;;;;;;1.83;1.00;;;12.10;50.60;;;;;;5043695;28;20029;-65
2021/11/09 13:51:28;;;;;;;3.03;1.25;;;12.10;49.90;;;;;;5041725;28;20093;-65
2021/11/09 13:54:01;;;;;;;2.75;0.95;;;12.10;50.20;;;;;;5042595;28;20021;-64
2021/11/09 13:56:27;;;;;;;1.90;1.30;;;11.80;50.70;;;;;;5041404;28;20398;-64
2021/11/09 13:59:04;;;;;;;4.38;1.00;;;11.70;51.50;;;;;;5040532;28;20036;-64
2021/11/09 14:01:36;;;;;;;3.90;1.00;;;11.60;52.00;;;;;;5047549;28;20017;-66
2021/11/09 14:04:12;;;;;;;1.90;1.30;;;11.50;52.40;;;;;;5046779;28;20039;-65
2021/11/09 14:15:44;;;;;;;3.97;1.40;;;11.20;54.30;;;;;;5043970;28;20080;-64
2021/11/09 14:17:39;;;;;;;1.00;0.88;;;11.10;55.30;;;;;;5039211;28;20427;-65
2021/11/09 14:20:21;;;;;;;1.60;1.10;;;11.00;55.40;;;;;;5043982;28;20029;-65
2021/11/09 14:23:01;;;;;;;5.90;1.30;;;10.90;55.30;;;;;;5042830;28;20220;-66
2021/11/09 14:25:27;;;;;;;5.70;1.45;;;10.80;56.20;;;;;;5042524;28;20079;-66
2021/11/09 14:27:53;;;;;;;1.38;0.90;;;10.80;56.50;;;;;;5041741;28;20033;-66
2021/11/09 14:30:25;;;;;;;2.20;0.88;;;10.70;56.80;;;;;;5043172;28;20052;-66
2021/11/09 14:32:50;;;;;;;2.47;1.23;;;10.70;57.10;;;;;;5041834;28;20211;-66
2021/11/09 14:35:23;;;;;;;2.00;1.20;;;10.70;57.10;;;;;;5043387;28;20026;-66
2021/11/09 14:37:59;;;;;;;3.90;1.25;;;10.60;57.30;;;;;;5043224;28;20029;-66
2021/11/09 14:40:56;;;;;;;3.07;1.03;;;10.70;56.90;;;;;;5041768;28;20025;-66
2021/11/09 14:43:37;;;;;;;1.25;1.00;;;10.60;58.10;;;;;;5003231;28;20277;-66
2021/11/09 14:46:12;;;;;;;3.17;1.25;;;10.60;58.10;;;;;;5006386;28;20100;-66
2021/11/09 14:51:18;;;;;;;5.07;0.90;;;10.50;58.20;;;;;;5041250;28;20276;-66
2021/11/09 14:53:58;;;;;;;1.48;0.98;;;10.40;58.60;;;;;;5042281;28;20022;-66
2021/11/09 14:56:33;;;;;;;4.57;0.90;;;10.30;59.30;;;;;;5042508;28;20041;-66
2021/11/09 14:59:05;;;;;;;4.40;1.30;;;10.30;58.40;;;;;;5041618;28;20022;-65
2021/11/09 15:02:03;;;;;;;1.30;0.65;;;10.30;60.00;;;;;;5041093;28;20021;-65
2021/11/09 15:30:47;;;;;;;4.82;0.98;;;9.60;64.90;;;;;;5041935;28;20045;-66
2021/11/09 15:38:11;;;;;;;2.75;1.27;;;9.50;66.20;;;;;;5040713;28;20028;-66
2021/11/09 15:40:37;;;;;;;3.58;1.80;;;9.40;67.60;;;;;;5041721;28;20390;-66
2021/11/09 15:43:03;;;;;;;4.00;1.45;;;9.30;68.00;;;;;;5040965;28;20040;-65
2021/11/09 15:45:29;;;;;;;1.42;1.02;;;9.30;68.60;;;;;;5042013;28;20025;-66
2021/11/09 15:47:55;;;;;;;2.53;1.38;;;9.20;70.00;;;;;;5041749;28;20043;-66
2021/11/09 15:50:20;;;;;;;3.40;1.37;;;9.10;70.80;;;;;;5040371;28;20029;-66
2021/11/09 15:52:46;;;;;;;3.45;1.80;;;9.10;71.70;;;;;;5041844;28;20029;-66
2021/11/09 15:55:12;;;;;;;5.63;2.28;;;9.00;69.90;;;;;;5041852;28;20328;-66
2021/11/09 15:57:38;;;;;;;3.45;1.80;;;9.00;70.80;;;;;;5041818;28;20036;-66
2021/11/09 16:00:10;;;;;;;2.45;1.73;;;8.90;71.70;;;;;;5041868;28;20033;-66
2021/11/09 16:02:36;;;;;;;4.15;1.73;;;8.90;72.20;;;;;;5040463;28;20139;-66
2021/11/09 16:05:04;;;;;;;2.40;1.88;;;8.80;71.20;;;;;;5041899;28;20236;-65
2021/11/09 16:07:30;;;;;;;2.70;1.50;;;8.70;71.30;;;;;;5035366;28;20038;-65
2021/11/09 16:09:57;;;;;;;3.28;1.92;;;8.70;71.80;;;;;;5021477;28;20030;-65
2021/11/09 16:12:25;;;;;;;;;;;8.60;71.30;;;;;;5022259;28;20018;-65